createdAt,value
2019-04-07T00:01:56.413Z,26.30
2019-04-07T00:04:25.477Z,25.87
2019-04-07T00:06:54.443Z,24.10
2019-04-07T00:09:23.250Z,24.33
2019-04-07T00:11:51.946Z,24.33
2019-04-07T00:14:20.769Z,25.57
2019-04-07T00:16:49.544Z,23.60
2019-04-07T00:19:18.254Z,24.43
2019-04-07T00:21:56.700Z,22.57
2019-04-07T00:24:27.266Z,24.20
2019-04-07T00:26:59.110Z,23.67
2019-04-07T00:29:33.508Z,23.87
2019-04-07T00:32:11.357Z,23.03
2019-04-07T00:34:45.154Z,23.60
2019-04-07T00:37:16.200Z,23.80
2019-04-07T00:39:54.117Z,23.80
2019-04-07T00:42:24.723Z,23.00
2019-04-07T00:45:00.856Z,24.10
2019-04-07T00:47:35.100Z,23.73
2019-04-07T00:50:07.892Z,23.33
2019-04-07T01:48:10.621Z,22.07
2019-04-07T01:50:55.821Z,21.40
2019-04-07T01:53:25.905Z,21.70
2019-04-07T01:55:56.445Z,21.53
2019-04-07T01:58:32.845Z,22.50
2019-04-07T02:01:12.153Z,22.13
2019-04-07T02:03:51.246Z,23.03
2019-04-07T02:06:31.115Z,21.47
2019-04-07T02:09:01.809Z,21.67
2019-04-07T02:11:47.923Z,22.43
2019-04-07T02:14:17.993Z,21.97
2019-04-07T02:16:48.108Z,21.17
2019-04-07T02:19:27.010Z,22.07
2019-04-07T02:21:57.054Z,21.47
2019-04-07T02:24:28.337Z,22.77
2019-04-07T02:27:10.742Z,22.03
2019-04-07T02:29:40.854Z,21.33
2019-04-07T02:32:10.910Z,21.77
2019-04-07T02:34:57.483Z,22.40
2019-04-07T02:37:31.232Z,21.17
2019-04-07T02:40:07.643Z,23.67
2019-04-07T02:42:38.349Z,22.10
2019-04-07T02:45:10.968Z,23.50
2019-04-07T02:47:57.760Z,22.00
2019-04-07T02:50:27.909Z,22.77
2019-04-07T02:52:58.037Z,21.90
2019-04-07T02:55:28.564Z,23.53
2019-04-07T02:58:04.669Z,24.77
2019-04-07T03:00:37.937Z,22.20
2019-04-07T03:03:18.810Z,22.03
2019-04-07T03:05:49.632Z,22.37
2019-04-07T03:08:23.628Z,22.90
2019-04-07T03:11:02.078Z,22.80
2019-04-07T03:13:49.046Z,23.30
2019-04-07T03:16:24.983Z,24.03
2019-04-07T03:18:58.010Z,23.60
2019-04-07T03:21:33.671Z,23.40
2019-04-07T03:24:09.918Z,23.73
2019-04-07T03:26:48.518Z,23.27
2019-04-07T03:29:27.398Z,22.97
2019-04-07T03:32:06.213Z,23.73
2019-04-07T03:34:38.019Z,23.17
2019-04-07T03:37:34.335Z,23.77
2019-04-07T03:39:54.747Z,23.63
2019-04-07T03:42:27.545Z,23.33
2019-04-07T03:45:06.356Z,23.83
2019-04-07T03:47:37.529Z,23.20
2019-04-07T03:50:20.638Z,24.77
2019-04-07T03:52:51.077Z,23.80
2019-04-07T03:55:33.062Z,24.27
2019-04-07T03:58:12.409Z,23.97
2019-04-07T04:01:03.625Z,22.20
2019-04-07T04:03:34.332Z,24.10
2019-04-07T04:06:04.738Z,23.30
2019-04-07T04:08:38.316Z,24.07
2019-04-07T04:11:11.646Z,22.97
2019-04-07T04:13:42.298Z,23.70
2019-04-07T04:16:11.207Z,23.67
2019-04-07T04:18:40.555Z,22.93
2019-04-07T04:21:09.170Z,24.40
2019-04-07T04:23:41.319Z,24.63
2019-04-07T04:26:08.311Z,22.93
2019-04-07T04:28:36.887Z,23.27
2019-04-07T04:31:05.257Z,23.70
2019-04-07T04:33:33.707Z,23.80
2019-04-07T04:36:02.761Z,23.70
2019-04-07T04:38:31.822Z,23.50
2019-04-07T04:41:01.337Z,24.03
2019-04-07T04:43:29.904Z,23.53
2019-04-07T04:45:58.329Z,23.60
2019-04-07T04:48:27.663Z,23.47
2019-04-07T04:50:56.380Z,21.97
2019-04-07T04:53:25.614Z,21.73
2019-04-07T04:55:54.475Z,23.30
2019-04-07T04:58:28.833Z,22.50
2019-04-07T05:00:57.861Z,22.40
2019-04-07T05:03:27.199Z,22.30
2019-04-07T05:05:56.291Z,21.80
2019-04-07T05:08:24.869Z,23.30
2019-04-07T05:10:54.870Z,21.97
2019-04-07T05:13:23.262Z,22.47
2019-04-07T05:15:51.789Z,22.10
2019-04-07T05:18:20.197Z,24.00
2019-04-07T05:20:48.758Z,21.43
2019-04-07T05:23:18.008Z,22.43
2019-04-07T05:25:46.541Z,22.97
2019-04-07T05:28:15.412Z,23.10
2019-04-07T05:30:44.123Z,23.07
2019-04-07T05:33:13.433Z,22.27
2019-04-07T05:35:42.810Z,21.77
2019-04-07T05:38:11.384Z,22.27
2019-04-07T05:40:40.024Z,22.50
2019-04-07T05:43:08.561Z,20.97
2019-04-07T05:45:37.705Z,22.10
2019-04-07T05:48:06.458Z,20.27
2019-04-07T05:50:35.036Z,21.47
2019-04-07T05:53:04.167Z,20.73
2019-04-07T05:55:32.649Z,21.90
2019-04-07T05:58:03.434Z,21.80
2019-04-07T06:00:31.293Z,20.50
2019-04-07T06:03:04.546Z,22.17
2019-04-07T06:05:30.247Z,20.73
2019-04-07T06:08:00.866Z,20.83
2019-04-07T06:10:29.814Z,22.40
2019-04-07T06:12:59.565Z,21.90
2019-04-07T06:15:28.097Z,24.23
2019-04-07T06:18:00.603Z,24.47
2019-04-07T06:20:26.671Z,23.67
2019-04-07T06:22:55.115Z,23.60
2019-04-07T06:25:23.526Z,23.33
2019-04-07T06:27:51.952Z,22.13
2019-04-07T06:30:20.995Z,24.23
2019-04-07T06:32:49.419Z,22.80
2019-04-07T06:35:18.273Z,25.43
2019-04-07T06:37:47.590Z,23.83
2019-04-07T06:40:20.467Z,25.10
2019-04-07T06:42:46.365Z,26.40
2019-04-07T06:45:20.598Z,26.13
2019-04-07T06:47:48.679Z,26.33
2019-04-07T06:50:44.853Z,27.37
2019-04-07T06:53:18.671Z,27.40
2019-04-07T06:56:02.121Z,27.93
2019-04-07T06:58:43.833Z,28.00
2019-04-07T07:01:25.737Z,27.20
2019-04-07T07:04:13.163Z,27.80
2019-04-07T07:06:46.069Z,27.60
2019-04-07T07:09:30.868Z,26.93
2019-04-07T07:12:06.565Z,26.50
2019-04-07T07:14:49.558Z,27.17
2019-04-07T07:17:22.529Z,27.20
2019-04-07T07:20:07.950Z,27.07
2019-04-07T07:22:46.700Z,28.00
2019-04-07T07:25:14.694Z,27.10
2019-04-07T07:27:43.173Z,26.63
2019-04-07T07:30:12.180Z,26.57
2019-04-07T07:32:40.977Z,27.27
2019-04-07T07:35:12.592Z,28.43
2019-04-07T07:37:40.118Z,24.20
2019-04-07T07:40:10.022Z,24.77
2019-04-07T07:42:38.470Z,25.03
2019-04-07T07:45:11.815Z,22.27
2019-04-07T07:47:39.169Z,23.47
2019-04-07T07:50:08.827Z,23.63
2019-04-07T07:52:37.676Z,23.00
2019-04-07T07:55:07.783Z,23.30
2019-04-07T07:57:37.032Z,22.97
2019-04-07T08:00:07.538Z,21.80
2019-04-07T08:02:36.817Z,24.10
2019-04-07T08:05:07.136Z,24.27
2019-04-07T08:07:35.912Z,24.87
2019-04-07T08:10:07.381Z,24.83
2019-04-07T08:12:35.955Z,23.20
2019-04-07T08:15:06.987Z,24.13
2019-04-07T08:17:35.714Z,25.03
2019-04-07T08:20:06.651Z,24.90
2019-04-07T08:22:40.737Z,24.10
2019-04-07T08:25:06.601Z,24.20
2019-04-07T08:27:35.487Z,23.70
2019-04-07T08:30:10.067Z,22.87
2019-04-07T08:32:36.845Z,22.10
2019-04-07T08:35:07.966Z,21.30
2019-04-07T08:37:36.565Z,20.13
2019-04-07T08:40:07.671Z,16.83
2019-04-07T08:42:36.953Z,15.07
2019-04-07T08:45:08.152Z,14.10
2019-04-07T08:47:36.638Z,14.30
2019-04-07T08:50:08.445Z,14.47
2019-04-07T08:52:40.755Z,15.80
2019-04-07T08:55:08.280Z,14.47
2019-04-07T08:57:37.420Z,14.03
2019-04-07T09:00:15.065Z,12.10
2019-04-07T09:02:40.548Z,11.53
2019-04-07T09:05:12.946Z,12.70
2019-04-07T09:07:42.258Z,13.70
2019-04-07T09:10:17.041Z,13.03
2019-04-07T09:12:44.015Z,14.77
2019-04-07T09:15:14.282Z,12.20
2019-04-07T09:17:46.645Z,10.63
2019-04-07T09:20:16.176Z,11.63
2019-04-07T09:22:54.971Z,11.40
2019-04-07T09:25:27.339Z,11.70
2019-04-07T09:28:03.585Z,12.93
2019-04-07T09:30:36.816Z,15.43
2019-04-07T09:33:16.004Z,15.30
2019-04-07T09:35:59.393Z,16.07
2019-04-07T09:38:29.534Z,17.30
2019-04-07T09:41:16.687Z,16.27
2019-04-07T09:43:47.262Z,16.43
2019-04-07T09:46:26.454Z,17.30
2019-04-07T09:49:02.266Z,18.17
2019-04-07T09:51:49.413Z,18.30
2019-04-07T09:54:23.379Z,19.07
2019-04-07T09:57:04.490Z,17.87
2019-04-07T09:59:37.571Z,17.98
2019-04-07T10:02:17.080Z,15.88
2019-04-07T10:05:03.856Z,15.93
2019-04-07T10:07:43.781Z,16.57
2019-04-07T10:10:14.928Z,15.88
2019-04-07T10:13:03.363Z,13.13
2019-04-07T10:15:39.638Z,13.90
2019-04-07T10:18:25.942Z,11.78
2019-04-07T10:21:05.332Z,11.12
2019-04-07T10:23:50.884Z,10.68
2019-04-07T10:26:24.393Z,11.50
2019-04-07T10:28:55.197Z,11.68
2019-04-07T10:31:25.378Z,12.10
2019-04-07T10:33:56.195Z,12.33
2019-04-07T10:36:27.050Z,12.55
2019-04-07T10:39:15.324Z,13.15
2019-04-07T10:41:55.310Z,14.07
2019-04-07T10:44:43.635Z,12.20
2019-04-07T10:47:23.503Z,12.90
2019-04-07T10:50:02.414Z,13.85
2019-04-07T10:52:28.309Z,13.48
2019-04-07T10:55:14.199Z,13.70
2019-04-07T10:57:59.829Z,14.85
2019-04-07T11:00:50.655Z,13.75
2019-04-07T11:03:36.262Z,13.68
2019-04-07T11:06:24.659Z,12.78
2019-04-07T11:08:55.455Z,14.95
2019-04-07T11:11:42.143Z,13.80
2019-04-07T11:14:12.259Z,13.48
2019-04-07T11:16:48.558Z,13.32
2019-04-07T11:19:21.681Z,14.03
2019-04-07T11:21:51.780Z,13.70
2019-04-07T11:24:22.127Z,14.63
2019-04-07T11:26:52.715Z,15.30
2019-04-07T11:29:39.660Z,15.13
2019-04-07T11:32:28.136Z,13.88
2019-04-07T11:35:04.980Z,13.98
2019-04-07T11:37:50.261Z,13.68
2019-04-07T11:40:21.030Z,11.00
2019-04-07T11:42:51.242Z,11.43
2019-04-07T11:45:53.297Z,12.10
2019-04-07T11:48:17.593Z,12.13
2019-04-07T11:50:50.753Z,11.40
2019-04-07T11:53:24.155Z,12.53
2019-04-07T11:56:03.403Z,11.68
2019-04-07T11:58:48.733Z,11.18
2019-04-07T12:01:21.580Z,11.22
2019-04-07T12:04:08.720Z,9.88
2019-04-07T12:06:48.162Z,11.10
2019-04-07T12:09:17.551Z,11.03
2019-04-07T12:12:04.796Z,10.40
2019-04-07T12:14:53.148Z,10.18
2019-04-07T12:17:25.607Z,10.60
2019-04-07T12:19:59.158Z,10.35
2019-04-07T12:22:31.715Z,9.33
2019-04-07T12:25:17.919Z,9.73
2019-04-07T12:28:04.332Z,10.93
2019-04-07T12:30:37.980Z,9.88
2019-04-07T12:33:09.028Z,10.23
2019-04-07T12:35:39.903Z,11.87
2019-04-07T12:38:22.929Z,12.10
2019-04-07T12:40:59.502Z,9.87
2019-04-07T12:43:31.091Z,44.00
2019-04-07T12:46:01.354Z,10.70
2019-04-07T12:48:38.061Z,12.57
2019-04-07T12:51:08.462Z,10.13
2019-04-07T12:53:41.187Z,11.03
2019-04-07T12:56:33.329Z,12.00
2019-04-07T12:59:07.979Z,14.20
2019-04-07T13:01:38.253Z,15.60
2019-04-07T13:04:23.385Z,11.40
2019-04-07T13:07:02.422Z,10.37
2019-04-07T13:09:38.456Z,10.00
2019-04-07T13:12:25.842Z,9.40
2019-04-07T13:14:59.036Z,10.13
2019-04-07T13:17:38.254Z,10.70
2019-04-07T13:20:22.316Z,9.80
2019-04-07T13:22:53.121Z,10.57
2019-04-07T13:25:24.263Z,10.27
2019-04-07T13:28:08.134Z,11.60
2019-04-07T13:30:39.115Z,11.37
2019-04-07T13:33:21.691Z,8.77
2019-04-07T13:36:05.022Z,9.50
2019-04-07T13:38:35.256Z,9.93
2019-04-07T13:41:23.722Z,9.60
2019-04-07T13:44:07.123Z,8.70
2019-04-07T13:46:44.373Z,9.30
2019-04-07T13:49:32.060Z,9.17
2019-04-07T13:52:20.342Z,8.77
2019-04-07T13:54:49.412Z,8.23
2019-04-07T13:57:34.952Z,8.00
2019-04-07T14:00:21.710Z,8.07
2019-04-07T14:02:51.946Z,7.83
2019-04-07T14:05:28.103Z,8.57
2019-04-07T14:07:58.915Z,7.90
2019-04-07T14:10:45.031Z,7.87
2019-04-07T14:13:21.049Z,8.80
2019-04-07T14:15:54.018Z,7.33
2019-04-07T14:18:36.715Z,8.20
2019-04-07T14:21:23.583Z,8.17
2019-04-07T14:23:57.229Z,7.87
2019-04-07T14:26:31.231Z,7.60
2019-04-07T14:29:16.961Z,7.50
2019-04-07T14:31:53.409Z,7.40
2019-04-07T14:34:35.211Z,7.30
2019-04-07T14:37:20.629Z,7.20
2019-04-07T14:40:01.060Z,7.60
2019-04-07T14:42:34.140Z,7.13
2019-04-07T14:45:07.776Z,6.67
2019-04-07T14:47:38.205Z,6.07
2019-04-07T14:50:14.587Z,6.53
2019-04-07T14:52:53.704Z,7.33
2019-04-07T14:55:31.565Z,6.23
2019-04-07T14:58:19.003Z,6.07
2019-04-07T15:00:52.330Z,5.87
2019-04-07T15:03:21.425Z,6.17
2019-04-07T15:05:56.506Z,6.27
2019-04-07T15:08:30.381Z,7.40
2019-04-07T15:11:02.680Z,7.77
2019-04-07T15:13:32.106Z,7.87
2019-04-07T15:16:00.618Z,7.53
2019-04-07T15:18:29.800Z,7.23
2019-04-07T15:20:58.257Z,6.70
2019-04-07T15:23:29.455Z,6.07
2019-04-07T15:25:56.885Z,6.73
2019-04-07T15:28:25.290Z,6.10
2019-04-07T15:30:53.761Z,6.97
2019-04-07T15:33:22.401Z,7.43
2019-04-07T15:35:50.858Z,7.40
2019-04-07T15:38:22.989Z,7.60
2019-04-07T15:40:49.529Z,7.70
2019-04-07T15:43:17.956Z,6.87
2019-04-07T15:45:46.941Z,7.20
2019-04-07T15:48:15.424Z,7.43
2019-04-07T15:50:43.852Z,6.53
2019-04-07T15:53:14.981Z,7.60
2019-04-07T15:55:49.889Z,6.17
2019-04-07T15:58:13.468Z,6.40
2019-04-07T16:00:42.043Z,6.90
2019-04-07T16:03:12.705Z,6.77
2019-04-07T16:05:43.812Z,6.30
2019-04-07T16:08:11.665Z,7.57
2019-04-07T16:10:41.412Z,6.70
2019-04-07T16:13:10.839Z,7.63
2019-04-07T16:15:42.584Z,7.30
2019-04-07T16:18:10.512Z,7.13
2019-04-07T16:20:40.376Z,7.30
2019-04-07T16:23:10.204Z,7.47
2019-04-07T16:25:40.457Z,6.77
2019-04-07T16:28:13.124Z,7.47
2019-04-07T16:30:39.495Z,6.90
2019-04-07T16:33:08.794Z,8.00
2019-04-07T16:35:37.296Z,7.57
2019-04-07T16:38:05.815Z,6.60
2019-04-07T16:40:35.013Z,6.57
2019-04-07T16:43:12.451Z,5.60
2019-04-07T16:45:33.922Z,6.63
2019-04-07T16:48:04.742Z,6.80
2019-04-07T16:50:32.678Z,6.63
2019-04-07T16:53:03.584Z,6.00
2019-04-07T16:55:34.905Z,5.83
2019-04-07T16:58:03.543Z,6.10
2019-04-07T17:00:32.403Z,6.70
2019-04-07T17:03:01.298Z,6.60
2019-04-07T17:05:30.227Z,6.33
2019-04-07T17:07:59.468Z,6.50
2019-04-07T17:10:32.320Z,6.40
2019-04-07T17:13:00.407Z,7.57
2019-04-07T17:15:28.488Z,8.23
2019-04-07T17:17:57.030Z,8.97
2019-04-07T17:20:27.189Z,8.73
2019-04-07T17:22:56.785Z,8.03
2019-04-07T17:25:25.584Z,10.07
2019-04-07T17:27:54.060Z,11.23
2019-04-07T17:30:25.333Z,11.43
2019-04-07T17:32:53.343Z,8.30
2019-04-07T17:35:21.817Z,8.83
2019-04-07T17:37:50.926Z,8.30
2019-04-07T17:40:21.511Z,8.10
2019-04-07T17:42:52.776Z,8.33
2019-04-07T17:45:38.109Z,9.03
2019-04-07T17:48:24.536Z,9.20
2019-04-07T17:51:08.411Z,9.37
2019-04-07T17:53:41.386Z,10.47
2019-04-07T17:56:16.595Z,10.33
2019-04-07T17:58:45.681Z,9.50
2019-04-07T18:01:25.067Z,10.47
2019-04-07T18:04:15.490Z,10.03
2019-04-07T18:06:49.510Z,9.77
2019-04-07T18:09:28.459Z,10.53
2019-04-07T18:12:13.923Z,9.87
2019-04-07T18:15:00.684Z,11.00
2019-04-07T18:17:48.562Z,11.00
2019-04-07T18:20:36.333Z,12.17
2019-04-07T18:23:09.917Z,10.27
2019-04-07T18:25:46.439Z,13.13
2019-04-07T18:28:26.177Z,10.63
2019-04-07T18:31:13.279Z,11.20
2019-04-07T18:34:01.411Z,10.87
2019-04-07T18:36:42.518Z,10.97
2019-04-07T18:39:15.933Z,10.23
2019-04-07T18:42:04.100Z,12.63
2019-04-07T18:44:48.740Z,11.87
2019-04-07T18:47:27.542Z,11.57
2019-04-07T18:50:04.065Z,11.60
2019-04-07T18:52:53.334Z,12.50
2019-04-07T18:55:27.324Z,13.27
2019-04-07T18:58:15.360Z,12.70
2019-04-07T19:00:45.739Z,13.23
2019-04-07T19:03:35.072Z,14.00
2019-04-07T19:06:14.821Z,14.70
2019-04-07T19:08:54.371Z,14.97
2019-04-07T19:11:26.144Z,15.10
2019-04-07T19:14:30.626Z,15.93
2019-04-07T19:16:47.065Z,18.13
2019-04-07T19:19:36.832Z,17.60
2019-04-07T19:22:19.687Z,19.70
2019-04-07T19:25:11.194Z,23.57
2019-04-07T19:28:03.469Z,23.47
2019-04-07T19:30:53.391Z,24.57
2019-04-07T19:33:59.832Z,26.80
2019-04-07T19:36:35.849Z,26.40
2019-04-07T19:39:12.586Z,28.50
2019-04-07T19:42:06.915Z,29.43
2019-04-07T19:44:53.615Z,29.57
2019-04-07T19:47:37.171Z,28.23
2019-04-07T19:50:27.020Z,30.40
2019-04-07T19:53:00.980Z,29.73
2019-04-07T19:55:46.501Z,28.97
2019-04-07T19:58:26.391Z,31.43
2019-04-07T20:01:01.657Z,29.23
2019-04-07T20:03:47.979Z,30.70
2019-04-07T20:06:34.166Z,29.37
2019-04-07T20:09:07.688Z,31.87
2019-04-07T20:11:37.522Z,32.10
2019-04-07T20:14:23.841Z,29.60
2019-04-07T20:16:53.934Z,31.63
2019-04-07T20:19:27.881Z,30.90
2019-04-07T20:21:58.184Z,32.50
2019-04-07T20:24:36.730Z,31.37
2019-04-07T20:27:06.633Z,31.57
2019-04-07T20:29:42.372Z,32.00
2019-04-07T20:32:25.291Z,33.10
2019-04-07T20:35:01.231Z,33.67
2019-04-07T20:37:32.283Z,32.73
2019-04-07T20:40:05.366Z,35.87
2019-04-07T20:42:39.772Z,34.70
2019-04-07T20:45:21.555Z,36.17
2019-04-07T20:47:52.215Z,34.03
2019-04-07T20:50:31.319Z,34.93
2019-04-07T20:53:22.862Z,34.90
2019-04-07T20:56:00.796Z,35.57
2019-04-07T20:58:55.508Z,35.43
2019-04-07T21:01:28.683Z,34.47
2019-04-07T21:04:06.385Z,34.83
2019-04-07T21:06:45.575Z,37.53
2019-04-07T21:09:31.613Z,35.97
2019-04-07T21:12:03.038Z,35.50
2019-04-07T21:14:45.376Z,36.60
2019-04-07T21:17:32.566Z,36.40
2019-04-07T21:20:10.918Z,38.23
2019-04-07T21:22:56.089Z,36.93
2019-04-07T21:25:35.275Z,37.90
2019-04-07T21:28:11.091Z,38.13
2019-04-07T21:30:42.976Z,36.20
2019-04-07T21:33:32.432Z,39.03
2019-04-07T21:36:10.314Z,37.73
2019-04-07T21:38:41.161Z,38.93
2019-04-07T21:41:21.031Z,38.10
2019-04-07T21:44:03.405Z,39.17
2019-04-07T21:46:42.951Z,35.13
2019-04-07T21:49:13.856Z,35.77
2019-04-07T21:51:48.221Z,33.00
2019-04-07T21:54:18.367Z,33.20
2019-04-07T21:56:48.419Z,34.70
2019-04-07T21:59:19.965Z,34.73
2019-04-07T22:01:55.953Z,33.83
2019-04-07T22:04:44.477Z,33.30
2019-04-07T22:07:32.868Z,30.73
2019-04-07T22:10:01.442Z,30.50
2019-04-07T22:12:30.705Z,29.27
2019-04-07T22:15:00.270Z,27.10
2019-04-07T22:17:32.735Z,27.77
2019-04-07T22:19:59.032Z,25.63
2019-04-07T22:22:27.720Z,26.00
2019-04-07T22:24:56.733Z,25.87
2019-04-07T22:27:27.312Z,25.50
2019-04-07T22:29:55.436Z,23.83
2019-04-07T22:32:24.373Z,25.57
2019-04-07T22:34:52.970Z,24.03
2019-04-07T22:37:22.474Z,23.87
2019-04-07T22:39:52.680Z,21.53
2019-04-07T22:42:22.390Z,20.73
2019-04-07T22:44:53.677Z,20.40
2019-04-07T22:47:22.405Z,20.57
2019-04-07T22:49:51.325Z,20.20
2019-04-07T22:52:20.547Z,19.60
2019-04-07T22:54:49.840Z,18.67
2019-04-07T22:57:18.354Z,18.07
2019-04-07T22:59:47.180Z,19.37
2019-04-07T23:02:15.968Z,19.23
2019-04-07T23:04:44.794Z,18.43
2019-04-07T23:07:13.800Z,19.40
2019-04-07T23:09:42.179Z,19.50
2019-04-07T23:12:10.682Z,19.43
2019-04-07T23:14:40.040Z,18.97
2019-04-07T23:17:08.733Z,19.57
2019-04-07T23:19:37.867Z,19.20
2019-04-07T23:22:06.540Z,18.77
2019-04-07T23:24:35.051Z,19.80
2019-04-07T23:27:04.128Z,18.63
2019-04-07T23:29:32.721Z,17.37
2019-04-07T23:32:01.851Z,17.07
2019-04-07T23:34:31.101Z,16.37
2019-04-07T23:36:59.777Z,14.63
2019-04-07T23:39:29.188Z,13.93
2019-04-07T23:41:58.600Z,14.53
2019-04-07T23:44:27.710Z,15.10
2019-04-07T23:46:57.107Z,14.30
2019-04-07T23:49:26.149Z,13.57
2019-04-07T23:51:55.240Z,13.33
2019-04-07T23:54:24.807Z,12.83
2019-04-07T23:56:54.135Z,13.77
2019-04-07T23:59:22.884Z,13.53
